sensor_id;sensor_type;location;lat;lon;timestamp;P1;durP1;ratioP1;P2;durP2;ratioP2
22754;SDS011;11544;42.020;23.094;2023-12-20T00:02:15;22.90;;;11.27;;
22754;SDS011;11544;42.020;23.094;2023-12-20T00:04:42;22.90;;;11.70;;
22754;SDS011;11544;42.020;23.094;2023-12-20T00:07:09;25.95;;;11.85;;
22754;SDS011;11544;42.020;23.094;2023-12-20T00:09:36;25.65;;;11.70;;
22754;SDS011;11544;42.020;23.094;2023-12-20T00:12:03;24.52;;;11.80;;
22754;SDS011;11544;42.020;23.094;2023-12-20T00:14:30;23.27;;;11.60;;
22754;SDS011;11544;42.020;23.094;2023-12-20T00:16:57;20.00;;;10.32;;
22754;SDS011;11544;42.020;23.094;2023-12-20T00:19:24;19.42;;;10.70;;
22754;SDS011;11544;42.020;23.094;2023-12-20T00:21:51;22.95;;;11.15;;
22754;SDS011;11544;42.020;23.094;2023-12-20T00:24:18;22.55;;;12.07;;
22754;SDS011;11544;42.020;23.094;2023-12-20T00:26:44;19.98;;;9.77;;
22754;SDS011;11544;42.020;23.094;2023-12-20T00:29:11;19.48;;;10.20;;
22754;SDS011;11544;42.020;23.094;2023-12-20T00:31:38;22.05;;;9.77;;
22754;SDS011;11544;42.020;23.094;2023-12-20T00:34:05;18.90;;;10.48;;
22754;SDS011;11544;42.020;23.094;2023-12-20T00:36:32;21.10;;;10.82;;
22754;SDS011;11544;42.020;23.094;2023-12-20T00:38:59;20.73;;;10.27;;
22754;SDS011;11544;42.020;23.094;2023-12-20T00:41:26;19.05;;;9.77;;
22754;SDS011;11544;42.020;23.094;2023-12-20T00:43:53;23.48;;;9.65;;
22754;SDS011;11544;42.020;23.094;2023-12-20T00:46:20;27.33;;;11.68;;
22754;SDS011;11544;42.020;23.094;2023-12-20T00:48:47;21.98;;;10.30;;
22754;SDS011;11544;42.020;23.094;2023-12-20T00:51:14;19.50;;;8.65;;
22754;SDS011;11544;42.020;23.094;2023-12-20T00:53:41;21.90;;;11.05;;
22754;SDS011;11544;42.020;23.094;2023-12-20T00:56:09;22.30;;;10.80;;
22754;SDS011;11544;42.020;23.094;2023-12-20T00:58:36;23.80;;;10.35;;
22754;SDS011;11544;42.020;23.094;2023-12-20T01:01:03;24.65;;;11.10;;
22754;SDS011;11544;42.020;23.094;2023-12-20T01:03:30;22.20;;;10.82;;
22754;SDS011;11544;42.020;23.094;2023-12-20T01:05:57;20.92;;;10.60;;
22754;SDS011;11544;42.020;23.094;2023-12-20T01:08:24;23.50;;;11.00;;
22754;SDS011;11544;42.020;23.094;2023-12-20T01:10:51;23.85;;;11.75;;
22754;SDS011;11544;42.020;23.094;2023-12-20T01:13:18;22.45;;;11.05;;
22754;SDS011;11544;42.020;23.094;2023-12-20T01:15:45;26.63;;;12.70;;
22754;SDS011;11544;42.020;23.094;2023-12-20T01:18:14;20.63;;;10.85;;
22754;SDS011;11544;42.020;23.094;2023-12-20T01:20:41;24.17;;;10.02;;
22754;SDS011;11544;42.020;23.094;2023-12-20T01:23:07;24.40;;;11.23;;
22754;SDS011;11544;42.020;23.094;2023-12-20T01:25:34;20.55;;;9.60;;
22754;SDS011;11544;42.020;23.094;2023-12-20T01:28:01;23.88;;;9.00;;
22754;SDS011;11544;42.020;23.094;2023-12-20T01:30:29;24.98;;;10.25;;
22754;SDS011;11544;42.020;23.094;2023-12-20T01:32:56;31.23;;;10.80;;
22754;SDS011;11544;42.020;23.094;2023-12-20T01:35:23;23.30;;;10.52;;
22754;SDS011;11544;42.020;23.094;2023-12-20T01:37:50;19.67;;;9.45;;
22754;SDS011;11544;42.020;23.094;2023-12-20T01:40:17;23.90;;;10.85;;
22754;SDS011;11544;42.020;23.094;2023-12-20T01:42:46;20.23;;;9.15;;
22754;SDS011;11544;42.020;23.094;2023-12-20T01:45:13;29.25;;;10.60;;
22754;SDS011;11544;42.020;23.094;2023-12-20T01:47:40;28.75;;;9.40;;
22754;SDS011;11544;42.020;23.094;2023-12-20T01:50:07;22.80;;;10.63;;
22754;SDS011;11544;42.020;23.094;2023-12-20T01:52:35;21.17;;;9.95;;
22754;SDS011;11544;42.020;23.094;2023-12-20T01:55:03;22.80;;;10.30;;
22754;SDS011;11544;42.020;23.094;2023-12-20T01:57:37;20.90;;;10.45;;
22754;SDS011;11544;42.020;23.094;2023-12-20T02:00:05;39.08;;;11.25;;
22754;SDS011;11544;42.020;23.094;2023-12-20T02:02:32;23.55;;;10.50;;
22754;SDS011;11544;42.020;23.094;2023-12-20T02:05:00;32.33;;;10.63;;
22754;SDS011;11544;42.020;23.094;2023-12-20T02:07:29;22.83;;;8.77;;
22754;SDS011;11544;42.020;23.094;2023-12-20T02:09:57;21.02;;;8.90;;
22754;SDS011;11544;42.020;23.094;2023-12-20T02:12:24;33.97;;;10.85;;
22754;SDS011;11544;42.020;23.094;2023-12-20T02:14:51;21.33;;;8.98;;
22754;SDS011;11544;42.020;23.094;2023-12-20T02:17:18;20.45;;;9.75;;
22754;SDS011;11544;42.020;23.094;2023-12-20T02:19:45;22.23;;;9.35;;
22754;SDS011;11544;42.020;23.094;2023-12-20T02:22:12;25.88;;;9.55;;
22754;SDS011;11544;42.020;23.094;2023-12-20T02:24:39;22.95;;;10.20;;
22754;SDS011;11544;42.020;23.094;2023-12-20T02:27:07;21.13;;;10.05;;
22754;SDS011;11544;42.020;23.094;2023-12-20T02:29:34;20.70;;;10.65;;
22754;SDS011;11544;42.020;23.094;2023-12-20T02:32:02;23.63;;;9.85;;
22754;SDS011;11544;42.020;23.094;2023-12-20T02:34:29;21.73;;;9.23;;
22754;SDS011;11544;42.020;23.094;2023-12-20T02:36:56;23.83;;;9.90;;
22754;SDS011;11544;42.020;23.094;2023-12-20T02:39:23;22.90;;;9.65;;
22754;SDS011;11544;42.020;23.094;2023-12-20T02:41:50;23.33;;;9.75;;
22754;SDS011;11544;42.020;23.094;2023-12-20T02:44:17;17.15;;;9.75;;
22754;SDS011;11544;42.020;23.094;2023-12-20T02:46:44;21.95;;;9.88;;
22754;SDS011;11544;42.020;23.094;2023-12-20T02:49:11;17.73;;;9.40;;
22754;SDS011;11544;42.020;23.094;2023-12-20T02:51:38;21.42;;;10.60;;
22754;SDS011;11544;42.020;23.094;2023-12-20T02:54:05;22.70;;;10.25;;
22754;SDS011;11544;42.020;23.094;2023-12-20T02:56:32;29.92;;;10.52;;
22754;SDS011;11544;42.020;23.094;2023-12-20T02:58:59;25.33;;;9.88;;
22754;SDS011;11544;42.020;23.094;2023-12-20T03:01:27;21.75;;;9.43;;
22754;SDS011;11544;42.020;23.094;2023-12-20T03:03:55;17.13;;;8.90;;
22754;SDS011;11544;42.020;23.094;2023-12-20T03:06:23;20.52;;;8.55;;
22754;SDS011;11544;42.020;23.094;2023-12-20T03:08:50;18.20;;;8.38;;
22754;SDS011;11544;42.020;23.094;2023-12-20T03:11:17;19.20;;;9.10;;
22754;SDS011;11544;42.020;23.094;2023-12-20T03:13:44;23.38;;;8.63;;
22754;SDS011;11544;42.020;23.094;2023-12-20T03:16:11;16.65;;;8.60;;
22754;SDS011;11544;42.020;23.094;2023-12-20T03:18:39;23.00;;;9.07;;
22754;SDS011;11544;42.020;23.094;2023-12-20T03:21:06;19.50;;;9.13;;
22754;SDS011;11544;42.020;23.094;2023-12-20T03:23:33;15.50;;;8.23;;
22754;SDS011;11544;42.020;23.094;2023-12-20T03:26:00;19.92;;;9.15;;
22754;SDS011;11544;42.020;23.094;2023-12-20T03:28:27;20.60;;;9.55;;
22754;SDS011;11544;42.020;23.094;2023-12-20T03:30:54;22.52;;;10.30;;
22754;SDS011;11544;42.020;23.094;2023-12-20T03:33:21;18.10;;;8.73;;
22754;SDS011;11544;42.020;23.094;2023-12-20T03:35:48;22.17;;;9.25;;
22754;SDS011;11544;42.020;23.094;2023-12-20T03:38:15;20.90;;;9.27;;
22754;SDS011;11544;42.020;23.094;2023-12-20T03:40:42;21.02;;;10.05;;
22754;SDS011;11544;42.020;23.094;2023-12-20T03:43:09;18.45;;;8.35;;
22754;SDS011;11544;42.020;23.094;2023-12-20T03:45:36;18.23;;;8.75;;
22754;SDS011;11544;42.020;23.094;2023-12-20T03:48:03;19.98;;;9.65;;
22754;SDS011;11544;42.020;23.094;2023-12-20T03:50:30;24.35;;;9.85;;
22754;SDS011;11544;42.020;23.094;2023-12-20T03:52:57;22.80;;;10.05;;
22754;SDS011;11544;42.020;23.094;2023-12-20T03:55:24;21.60;;;10.05;;
22754;SDS011;11544;42.020;23.094;2023-12-20T03:57:51;21.00;;;8.98;;
22754;SDS011;11544;42.020;23.094;2023-12-20T04:00:18;23.02;;;9.13;;
22754;SDS011;11544;42.020;23.094;2023-12-20T04:02:45;16.77;;;8.68;;
22754;SDS011;11544;42.020;23.094;2023-12-20T04:05:12;20.08;;;9.25;;
22754;SDS011;11544;42.020;23.094;2023-12-20T04:07:39;22.67;;;10.57;;
22754;SDS011;11544;42.020;23.094;2023-12-20T04:10:06;23.92;;;8.43;;
22754;SDS011;11544;42.020;23.094;2023-12-20T04:12:34;20.38;;;9.23;;
22754;SDS011;11544;42.020;23.094;2023-12-20T04:15:01;23.13;;;9.85;;
22754;SDS011;11544;42.020;23.094;2023-12-20T04:17:35;22.95;;;10.13;;
22754;SDS011;11544;42.020;23.094;2023-12-20T04:20:03;26.35;;;9.52;;
22754;SDS011;11544;42.020;23.094;2023-12-20T04:22:30;24.40;;;9.57;;
22754;SDS011;11544;42.020;23.094;2023-12-20T04:24:57;19.60;;;9.02;;
22754;SDS011;11544;42.020;23.094;2023-12-20T04:27:24;25.55;;;10.48;;
22754;SDS011;11544;42.020;23.094;2023-12-20T04:29:51;24.20;;;10.00;;
22754;SDS011;11544;42.020;23.094;2023-12-20T04:32:18;21.77;;;9.65;;
22754;SDS011;11544;42.020;23.094;2023-12-20T04:34:45;21.52;;;10.40;;
22754;SDS011;11544;42.020;23.094;2023-12-20T04:37:12;22.67;;;10.15;;
22754;SDS011;11544;42.020;23.094;2023-12-20T04:39:39;18.27;;;8.57;;
22754;SDS011;11544;42.020;23.094;2023-12-20T04:42:07;16.98;;;7.75;;
22754;SDS011;11544;42.020;23.094;2023-12-20T04:44:34;18.67;;;7.68;;
22754;SDS011;11544;42.020;23.094;2023-12-20T04:47:01;20.70;;;8.57;;
22754;SDS011;11544;42.020;23.094;2023-12-20T04:49:29;21.85;;;9.88;;
22754;SDS011;11544;42.020;23.094;2023-12-20T04:51:56;20.15;;;9.48;;
22754;SDS011;11544;42.020;23.094;2023-12-20T04:54:23;28.77;;;11.88;;
22754;SDS011;11544;42.020;23.094;2023-12-20T04:56:50;22.48;;;10.05;;
22754;SDS011;11544;42.020;23.094;2023-12-20T04:59:17;18.05;;;8.70;;
22754;SDS011;11544;42.020;23.094;2023-12-20T05:01:44;24.10;;;8.95;;
22754;SDS011;11544;42.020;23.094;2023-12-20T05:04:11;18.77;;;8.07;;
22754;SDS011;11544;42.020;23.094;2023-12-20T05:06:38;23.30;;;9.88;;
22754;SDS011;11544;42.020;23.094;2023-12-20T05:09:05;24.30;;;11.10;;
22754;SDS011;11544;42.020;23.094;2023-12-20T05:11:33;25.30;;;10.73;;
22754;SDS011;11544;42.020;23.094;2023-12-20T05:13:59;25.90;;;10.40;;
22754;SDS011;11544;42.020;23.094;2023-12-20T05:16:26;22.65;;;10.52;;
22754;SDS011;11544;42.020;23.094;2023-12-20T05:18:53;18.13;;;9.73;;
22754;SDS011;11544;42.020;23.094;2023-12-20T05:21:20;22.13;;;10.32;;
22754;SDS011;11544;42.020;23.094;2023-12-20T05:23:47;31.27;;;11.00;;
22754;SDS011;11544;42.020;23.094;2023-12-20T05:26:14;24.58;;;11.50;;
22754;SDS011;11544;42.020;23.094;2023-12-20T05:28:41;32.00;;;11.02;;
22754;SDS011;11544;42.020;23.094;2023-12-20T05:31:08;18.45;;;8.75;;
22754;SDS011;11544;42.020;23.094;2023-12-20T05:33:35;25.65;;;10.15;;
22754;SDS011;11544;42.020;23.094;2023-12-20T05:36:02;21.92;;;9.70;;
22754;SDS011;11544;42.020;23.094;2023-12-20T05:38:30;26.10;;;11.48;;
22754;SDS011;11544;42.020;23.094;2023-12-20T05:40:57;22.77;;;10.32;;
22754;SDS011;11544;42.020;23.094;2023-12-20T05:43:24;27.88;;;11.65;;
22754;SDS011;11544;42.020;23.094;2023-12-20T05:45:51;24.67;;;10.73;;
22754;SDS011;11544;42.020;23.094;2023-12-20T05:48:20;26.38;;;10.73;;
22754;SDS011;11544;42.020;23.094;2023-12-20T05:50:47;22.30;;;9.93;;
22754;SDS011;11544;42.020;23.094;2023-12-20T05:53:16;22.55;;;10.73;;
22754;SDS011;11544;42.020;23.094;2023-12-20T05:55:42;25.30;;;11.13;;
22754;SDS011;11544;42.020;23.094;2023-12-20T05:58:09;23.83;;;10.80;;
22754;SDS011;11544;42.020;23.094;2023-12-20T06:00:36;24.33;;;10.95;;
22754;SDS011;11544;42.020;23.094;2023-12-20T06:03:03;23.15;;;10.18;;
22754;SDS011;11544;42.020;23.094;2023-12-20T06:05:31;23.88;;;10.95;;
22754;SDS011;11544;42.020;23.094;2023-12-20T06:07:58;30.27;;;11.93;;
22754;SDS011;11544;42.020;23.094;2023-12-20T06:10:28;26.95;;;11.68;;
22754;SDS011;11544;42.020;23.094;2023-12-20T06:12:55;30.33;;;11.80;;
22754;SDS011;11544;42.020;23.094;2023-12-20T06:15:22;27.55;;;11.95;;
22754;SDS011;11544;42.020;23.094;2023-12-20T06:17:49;24.80;;;11.55;;
22754;SDS011;11544;42.020;23.094;2023-12-20T06:20:17;24.25;;;12.02;;
22754;SDS011;11544;42.020;23.094;2023-12-20T06:22:44;20.95;;;11.07;;
22754;SDS011;11544;42.020;23.094;2023-12-20T06:25:11;26.42;;;10.63;;
22754;SDS011;11544;42.020;23.094;2023-12-20T06:27:38;25.58;;;10.63;;
22754;SDS011;11544;42.020;23.094;2023-12-20T06:30:05;29.77;;;13.27;;
22754;SDS011;11544;42.020;23.094;2023-12-20T06:32:32;23.80;;;11.85;;
22754;SDS011;11544;42.020;23.094;2023-12-20T06:35:01;28.65;;;13.10;;
22754;SDS011;11544;42.020;23.094;2023-12-20T06:37:27;23.67;;;11.02;;
22754;SDS011;11544;42.020;23.094;2023-12-20T06:39:54;21.25;;;11.25;;
22754;SDS011;11544;42.020;23.094;2023-12-20T06:42:23;18.70;;;9.43;;
22754;SDS011;11544;42.020;23.094;2023-12-20T06:44:50;24.23;;;11.00;;
22754;SDS011;11544;42.020;23.094;2023-12-20T06:47:17;18.33;;;9.10;;
22754;SDS011;11544;42.020;23.094;2023-12-20T06:49:44;16.98;;;9.27;;
22754;SDS011;11544;42.020;23.094;2023-12-20T06:52:11;22.85;;;10.88;;
22754;SDS011;11544;42.020;23.094;2023-12-20T06:54:38;23.15;;;11.43;;
22754;SDS011;11544;42.020;23.094;2023-12-20T06:57:05;21.35;;;10.65;;
22754;SDS011;11544;42.020;23.094;2023-12-20T06:59:31;20.70;;;10.20;;
22754;SDS011;11544;42.020;23.094;2023-12-20T07:02:17;29.90;;;12.98;;
22754;SDS011;11544;42.020;23.094;2023-12-20T07:04:45;20.42;;;10.43;;
22754;SDS011;11544;42.020;23.094;2023-12-20T07:07:12;22.23;;;10.55;;
22754;SDS011;11544;42.020;23.094;2023-12-20T07:09:39;31.35;;;14.00;;
22754;SDS011;11544;42.020;23.094;2023-12-20T07:12:09;29.70;;;11.77;;
22754;SDS011;11544;42.020;23.094;2023-12-20T07:14:36;24.52;;;10.80;;
22754;SDS011;11544;42.020;23.094;2023-12-20T07:17:02;23.00;;;10.25;;
22754;SDS011;11544;42.020;23.094;2023-12-20T07:19:29;21.58;;;10.05;;
22754;SDS011;11544;42.020;23.094;2023-12-20T07:21:56;21.80;;;9.52;;
22754;SDS011;11544;42.020;23.094;2023-12-20T07:24:23;23.63;;;10.05;;
22754;SDS011;11544;42.020;23.094;2023-12-20T07:26:50;24.92;;;10.38;;
22754;SDS011;11544;42.020;23.094;2023-12-20T07:29:18;23.30;;;11.05;;
22754;SDS011;11544;42.020;23.094;2023-12-20T07:31:45;23.27;;;11.05;;
22754;SDS011;11544;42.020;23.094;2023-12-20T07:34:12;25.02;;;12.02;;
22754;SDS011;11544;42.020;23.094;2023-12-20T07:36:39;28.38;;;13.55;;
22754;SDS011;11544;42.020;23.094;2023-12-20T07:39:06;29.17;;;13.65;;
22754;SDS011;11544;42.020;23.094;2023-12-20T07:41:33;23.80;;;12.38;;
22754;SDS011;11544;42.020;23.094;2023-12-20T07:44:00;23.55;;;11.77;;
22754;SDS011;11544;42.020;23.094;2023-12-20T07:46:26;30.08;;;13.63;;
22754;SDS011;11544;42.020;23.094;2023-12-20T07:48:53;27.05;;;13.23;;
22754;SDS011;11544;42.020;23.094;2023-12-20T07:51:20;29.15;;;13.50;;
22754;SDS011;11544;42.020;23.094;2023-12-20T07:53:47;30.02;;;11.82;;
22754;SDS011;11544;42.020;23.094;2023-12-20T07:56:18;37.53;;;14.20;;
22754;SDS011;11544;42.020;23.094;2023-12-20T07:58:46;28.63;;;13.82;;
22754;SDS011;11544;42.020;23.094;2023-12-20T08:01:19;34.50;;;16.27;;
22754;SDS011;11544;42.020;23.094;2023-12-20T08:03:48;33.65;;;13.52;;
22754;SDS011;11544;42.020;23.094;2023-12-20T08:06:16;36.38;;;16.33;;
22754;SDS011;11544;42.020;23.094;2023-12-20T08:08:43;32.10;;;14.45;;
22754;SDS011;11544;42.020;23.094;2023-12-20T08:11:20;36.05;;;15.88;;
22754;SDS011;11544;42.020;23.094;2023-12-20T08:13:47;30.55;;;14.18;;
22754;SDS011;11544;42.020;23.094;2023-12-20T08:16:14;34.10;;;14.57;;
22754;SDS011;11544;42.020;23.094;2023-12-20T08:18:42;30.08;;;13.57;;
22754;SDS011;11544;42.020;23.094;2023-12-20T08:21:09;34.25;;;16.27;;
22754;SDS011;11544;42.020;23.094;2023-12-20T08:23:36;35.33;;;14.35;;
22754;SDS011;11544;42.020;23.094;2023-12-20T08:26:04;36.78;;;15.32;;
22754;SDS011;11544;42.020;23.094;2023-12-20T08:28:34;40.45;;;16.95;;
22754;SDS011;11544;42.020;23.094;2023-12-20T08:31:03;38.92;;;15.70;;
22754;SDS011;11544;42.020;23.094;2023-12-20T08:33:30;33.78;;;15.07;;
22754;SDS011;11544;42.020;23.094;2023-12-20T08:35:56;36.63;;;15.80;;
22754;SDS011;11544;42.020;23.094;2023-12-20T08:38:24;42.47;;;16.50;;
22754;SDS011;11544;42.020;23.094;2023-12-20T08:40:51;36.83;;;16.63;;
22754;SDS011;11544;42.020;23.094;2023-12-20T08:43:18;37.30;;;16.05;;
22754;SDS011;11544;42.020;23.094;2023-12-20T08:45:45;37.05;;;15.38;;
22754;SDS011;11544;42.020;23.094;2023-12-20T08:48:11;35.53;;;15.82;;
22754;SDS011;11544;42.020;23.094;2023-12-20T08:50:38;36.38;;;16.35;;
22754;SDS011;11544;42.020;23.094;2023-12-20T08:53:06;44.45;;;17.50;;
22754;SDS011;11544;42.020;23.094;2023-12-20T08:55:33;39.58;;;16.67;;
22754;SDS011;11544;42.020;23.094;2023-12-20T08:58:00;35.80;;;16.50;;
22754;SDS011;11544;42.020;23.094;2023-12-20T09:00:27;36.45;;;17.38;;
22754;SDS011;11544;42.020;23.094;2023-12-20T09:02:54;34.38;;;17.05;;
22754;SDS011;11544;42.020;23.094;2023-12-20T09:05:21;49.28;;;19.90;;
22754;SDS011;11544;42.020;23.094;2023-12-20T09:07:49;44.53;;;17.60;;
22754;SDS011;11544;42.020;23.094;2023-12-20T09:10:16;51.42;;;19.90;;
22754;SDS011;11544;42.020;23.094;2023-12-20T09:12:49;39.60;;;16.33;;
22754;SDS011;11544;42.020;23.094;2023-12-20T09:15:16;36.20;;;17.50;;
22754;SDS011;11544;42.020;23.094;2023-12-20T09:17:43;41.67;;;17.63;;
22754;SDS011;11544;42.020;23.094;2023-12-20T09:20:11;37.50;;;18.50;;
22754;SDS011;11544;42.020;23.094;2023-12-20T09:22:40;42.05;;;17.83;;
22754;SDS011;11544;42.020;23.094;2023-12-20T09:25:08;44.78;;;17.75;;
22754;SDS011;11544;42.020;23.094;2023-12-20T09:27:37;34.83;;;15.40;;
22754;SDS011;11544;42.020;23.094;2023-12-20T09:30:04;35.50;;;15.77;;
22754;SDS011;11544;42.020;23.094;2023-12-20T09:32:32;36.38;;;16.58;;
22754;SDS011;11544;42.020;23.094;2023-12-20T09:34:59;47.45;;;19.55;;
22754;SDS011;11544;42.020;23.094;2023-12-20T09:37:26;39.15;;;16.67;;
22754;SDS011;11544;42.020;23.094;2023-12-20T09:39:54;38.65;;;17.10;;
22754;SDS011;11544;42.020;23.094;2023-12-20T09:42:24;39.10;;;17.42;;
22754;SDS011;11544;42.020;23.094;2023-12-20T09:44:55;45.78;;;19.27;;
22754;SDS011;11544;42.020;23.094;2023-12-20T09:47:26;46.00;;;20.15;;
22754;SDS011;11544;42.020;23.094;2023-12-20T09:49:53;44.40;;;19.70;;
22754;SDS011;11544;42.020;23.094;2023-12-20T09:52:21;44.45;;;19.08;;
22754;SDS011;11544;42.020;23.094;2023-12-20T09:54:51;48.67;;;20.80;;
22754;SDS011;11544;42.020;23.094;2023-12-20T09:57:20;48.08;;;18.70;;
22754;SDS011;11544;42.020;23.094;2023-12-20T09:59:47;50.28;;;20.58;;
22754;SDS011;11544;42.020;23.094;2023-12-20T10:02:13;49.55;;;20.73;;
22754;SDS011;11544;42.020;23.094;2023-12-20T10:04:46;49.80;;;20.52;;
22754;SDS011;11544;42.020;23.094;2023-12-20T10:07:16;44.45;;;21.67;;
22754;SDS011;11544;42.020;23.094;2023-12-20T10:09:44;56.05;;;22.45;;
22754;SDS011;11544;42.020;23.094;2023-12-20T10:12:11;49.97;;;22.92;;
22754;SDS011;11544;42.020;23.094;2023-12-20T10:14:38;45.53;;;20.50;;
22754;SDS011;11544;42.020;23.094;2023-12-20T10:17:05;51.22;;;22.02;;
22754;SDS011;11544;42.020;23.094;2023-12-20T10:19:33;55.00;;;23.40;;
22754;SDS011;11544;42.020;23.094;2023-12-20T10:22:00;50.08;;;21.83;;
22754;SDS011;11544;42.020;23.094;2023-12-20T10:24:28;44.38;;;20.38;;
22754;SDS011;11544;42.020;23.094;2023-12-20T10:27:03;47.75;;;22.35;;
22754;SDS011;11544;42.020;23.094;2023-12-20T10:29:37;55.60;;;23.40;;
22754;SDS011;11544;42.020;23.094;2023-12-20T10:32:24;55.38;;;24.83;;
22754;SDS011;11544;42.020;23.094;2023-12-20T10:34:53;45.85;;;21.75;;
22754;SDS011;11544;42.020;23.094;2023-12-20T10:37:21;49.72;;;21.50;;
22754;SDS011;11544;42.020;23.094;2023-12-20T10:39:52;52.78;;;24.35;;
22754;SDS011;11544;42.020;23.094;2023-12-20T10:42:24;58.63;;;24.70;;
22754;SDS011;11544;42.020;23.094;2023-12-20T10:44:53;46.33;;;21.70;;
22754;SDS011;11544;42.020;23.094;2023-12-20T10:47:20;37.92;;;18.60;;
22754;SDS011;11544;42.020;23.094;2023-12-20T10:49:47;41.53;;;20.50;;
22754;SDS011;11544;42.020;23.094;2023-12-20T10:52:14;51.53;;;21.95;;
22754;SDS011;11544;42.020;23.094;2023-12-20T10:54:44;48.38;;;23.23;;
22754;SDS011;11544;42.020;23.094;2023-12-20T10:57:11;48.83;;;22.90;;
22754;SDS011;11544;42.020;23.094;2023-12-20T10:59:38;44.50;;;20.17;;
22754;SDS011;11544;42.020;23.094;2023-12-20T11:02:06;47.55;;;20.98;;
22754;SDS011;11544;42.020;23.094;2023-12-20T11:05:07;43.58;;;20.25;;
22754;SDS011;11544;42.020;23.094;2023-12-20T11:12:52;45.63;;;20.92;;
22754;SDS011;11544;42.020;23.094;2023-12-20T11:15:24;43.75;;;20.25;;
22754;SDS011;11544;42.020;23.094;2023-12-20T11:17:57;45.08;;;21.77;;
22754;SDS011;11544;42.020;23.094;2023-12-20T11:20:35;41.88;;;20.90;;
22754;SDS011;11544;42.020;23.094;2023-12-20T11:23:04;48.08;;;20.85;;
22754;SDS011;11544;42.020;23.094;2023-12-20T11:28:30;44.40;;;20.02;;
22754;SDS011;11544;42.020;23.094;2023-12-20T11:30:58;43.22;;;21.17;;
22754;SDS011;11544;42.020;23.094;2023-12-20T11:33:29;54.20;;;22.63;;
22754;SDS011;11544;42.020;23.094;2023-12-20T11:35:58;47.00;;;20.23;;
22754;SDS011;11544;42.020;23.094;2023-12-20T11:38:26;43.90;;;20.50;;
22754;SDS011;11544;42.020;23.094;2023-12-20T11:40:53;52.58;;;21.50;;
22754;SDS011;11544;42.020;23.094;2023-12-20T11:46:10;49.97;;;22.05;;
22754;SDS011;11544;42.020;23.094;2023-12-20T11:48:37;47.08;;;20.58;;
22754;SDS011;11544;42.020;23.094;2023-12-20T11:51:12;46.60;;;20.45;;
22754;SDS011;11544;42.020;23.094;2023-12-20T11:53:40;47.63;;;23.55;;
22754;SDS011;11544;42.020;23.094;2023-12-20T11:56:08;49.45;;;22.08;;
22754;SDS011;11544;42.020;23.094;2023-12-20T11:58:36;46.00;;;22.15;;
22754;SDS011;11544;42.020;23.094;2023-12-20T12:01:04;48.17;;;23.42;;
22754;SDS011;11544;42.020;23.094;2023-12-20T12:03:34;52.78;;;22.13;;
22754;SDS011;11544;42.020;23.094;2023-12-20T12:06:01;53.20;;;24.10;;
22754;SDS011;11544;42.020;23.094;2023-12-20T12:08:31;47.03;;;22.00;;
22754;SDS011;11544;42.020;23.094;2023-12-20T12:10:58;55.00;;;23.10;;
22754;SDS011;11544;42.020;23.094;2023-12-20T12:13:26;55.70;;;24.67;;
22754;SDS011;11544;42.020;23.094;2023-12-20T12:15:54;58.03;;;24.52;;
22754;SDS011;11544;42.020;23.094;2023-12-20T12:18:21;54.40;;;24.38;;
22754;SDS011;11544;42.020;23.094;2023-12-20T12:20:48;52.00;;;23.85;;
22754;SDS011;11544;42.020;23.094;2023-12-20T12:23:22;63.10;;;24.15;;
22754;SDS011;11544;42.020;23.094;2023-12-20T12:25:52;52.78;;;23.02;;
22754;SDS011;11544;42.020;23.094;2023-12-20T12:28:21;59.75;;;25.98;;
22754;SDS011;11544;42.020;23.094;2023-12-20T12:30:58;63.20;;;26.58;;
22754;SDS011;11544;42.020;23.094;2023-12-20T12:33:26;58.30;;;25.48;;
22754;SDS011;11544;42.020;23.094;2023-12-20T12:35:53;54.90;;;26.70;;
22754;SDS011;11544;42.020;23.094;2023-12-20T12:38:21;60.53;;;27.02;;
22754;SDS011;11544;42.020;23.094;2023-12-20T12:40:49;56.13;;;26.52;;
22754;SDS011;11544;42.020;23.094;2023-12-20T12:43:19;53.72;;;25.20;;
22754;SDS011;11544;42.020;23.094;2023-12-20T12:45:46;63.08;;;27.63;;
22754;SDS011;11544;42.020;23.094;2023-12-20T12:48:13;54.47;;;24.90;;
22754;SDS011;11544;42.020;23.094;2023-12-20T12:50:41;61.42;;;26.92;;
22754;SDS011;11544;42.020;23.094;2023-12-20T12:53:08;56.90;;;26.48;;
22754;SDS011;11544;42.020;23.094;2023-12-20T12:55:34;60.50;;;28.17;;
22754;SDS011;11544;42.020;23.094;2023-12-20T12:58:02;61.38;;;26.52;;
22754;SDS011;11544;42.020;23.094;2023-12-20T13:00:30;65.85;;;28.38;;
22754;SDS011;11544;42.020;23.094;2023-12-20T13:02:57;66.18;;;28.77;;
22754;SDS011;11544;42.020;23.094;2023-12-20T13:05:24;55.88;;;26.23;;
22754;SDS011;11544;42.020;23.094;2023-12-20T13:07:51;65.35;;;28.45;;
22754;SDS011;11544;42.020;23.094;2023-12-20T13:10:18;70.03;;;29.45;;
22754;SDS011;11544;42.020;23.094;2023-12-20T13:12:45;66.75;;;29.00;;
22754;SDS011;11544;42.020;23.094;2023-12-20T13:15:12;64.80;;;28.85;;
22754;SDS011;11544;42.020;23.094;2023-12-20T13:17:39;63.72;;;29.38;;
22754;SDS011;11544;42.020;23.094;2023-12-20T13:20:07;63.83;;;27.60;;
22754;SDS011;11544;42.020;23.094;2023-12-20T13:22:35;65.07;;;28.17;;
22754;SDS011;11544;42.020;23.094;2023-12-20T13:25:02;65.43;;;29.00;;
22754;SDS011;11544;42.020;23.094;2023-12-20T13:27:30;68.57;;;31.52;;
22754;SDS011;11544;42.020;23.094;2023-12-20T13:29:57;71.85;;;30.98;;
22754;SDS011;11544;42.020;23.094;2023-12-20T13:32:24;66.63;;;32.40;;
22754;SDS011;11544;42.020;23.094;2023-12-20T13:34:52;58.30;;;26.33;;
22754;SDS011;11544;42.020;23.094;2023-12-20T13:37:19;56.50;;;26.80;;
22754;SDS011;11544;42.020;23.094;2023-12-20T13:39:46;51.55;;;26.92;;
22754;SDS011;11544;42.020;23.094;2023-12-20T13:42:13;62.90;;;26.85;;
22754;SDS011;11544;42.020;23.094;2023-12-20T13:44:40;60.33;;;27.10;;
22754;SDS011;11544;42.020;23.094;2023-12-20T13:47:07;58.28;;;27.83;;
22754;SDS011;11544;42.020;23.094;2023-12-20T13:49:35;62.72;;;26.85;;
22754;SDS011;11544;42.020;23.094;2023-12-20T13:52:02;60.50;;;26.10;;
22754;SDS011;11544;42.020;23.094;2023-12-20T13:54:30;59.28;;;27.75;;
22754;SDS011;11544;42.020;23.094;2023-12-20T13:56:57;65.38;;;27.25;;
22754;SDS011;11544;42.020;23.094;2023-12-20T13:59:41;71.85;;;28.95;;
22754;SDS011;11544;42.020;23.094;2023-12-20T14:02:08;63.20;;;28.42;;
22754;SDS011;11544;42.020;23.094;2023-12-20T14:04:35;65.35;;;28.92;;
22754;SDS011;11544;42.020;23.094;2023-12-20T14:07:09;68.50;;;29.83;;
22754;SDS011;11544;42.020;23.094;2023-12-20T14:09:38;62.80;;;29.35;;
22754;SDS011;11544;42.020;23.094;2023-12-20T14:12:06;63.05;;;29.30;;
22754;SDS011;11544;42.020;23.094;2023-12-20T14:14:33;63.50;;;30.38;;
22754;SDS011;11544;42.020;23.094;2023-12-20T14:17:01;58.03;;;29.23;;
22754;SDS011;11544;42.020;23.094;2023-12-20T14:19:28;63.88;;;30.65;;
22754;SDS011;11544;42.020;23.094;2023-12-20T14:21:55;67.43;;;30.77;;
22754;SDS011;11544;42.020;23.094;2023-12-20T14:24:22;71.43;;;32.15;;
22754;SDS011;11544;42.020;23.094;2023-12-20T14:26:49;71.70;;;32.42;;